Time;durP1;ratioP1;P1;durP2;ratioP2;P2;SDS_P1;SDS_P2;PMS_P1;PMS_P2;Temp;Humidity;BMP_temperature;BMP_pressure;BME280_temperature;BME280_humidity;BME280_pressure;Samples;Min_cycle;Max_cycle;Signal;HPM_P1;HPM_P2
2023/12/08 00:01:15;;;;;;;13.88;4.53;;;;;;;-0.98;76.91;99226.56;5024408;28;20094;-65
2023/12/08 00:03:47;;;;;;;11.95;5.07;;;;;;;-0.97;76.72;99223.16;5014388;28;20061;-66
2023/12/08 00:06:18;;;;;;;11.70;4.28;;;;;;;-0.80;77.24;99230.19;5025718;28;20083;-63
2023/12/08 00:08:48;;;;;;;7.72;4.13;;;;;;;-0.76;76.64;99242.22;5014500;28;20049;-63
2023/12/08 00:11:19;;;;;;;12.77;4.82;;;;;;;-0.80;75.66;99231.09;5024865;28;20063;-64
2023/12/08 00:13:49;;;;;;;11.55;4.07;;;;;;;-0.68;77.41;99246.59;5015038;28;20052;-63
2023/12/08 00:16:20;;;;;;;13.05;4.30;;;;;;;-0.66;74.62;99244.06;5024839;28;20053;-64
2023/12/08 00:18:52;;;;;;;12.88;4.80;;;;;;;-0.81;74.31;99243.88;5014068;28;20052;-62
2023/12/08 00:21:25;;;;;;;11.60;4.93;;;;;;;-1.17;73.97;99198.97;5025184;28;20051;-63
2023/12/08 00:23:55;;;;;;;11.80;4.35;;;;;;;-0.92;74.26;99252.28;5013640;28;20073;-64
2023/12/08 00:26:26;;;;;;;11.95;4.55;;;;;;;-0.83;74.79;99256.66;5017158;28;20044;-62
2023/12/08 00:28:57;;;;;;;14.85;4.50;;;;;;;-0.82;73.93;99278.94;5024219;28;20054;-65
2023/12/08 00:31:27;;;;;;;11.85;4.10;;;;;;;-0.74;74.50;99284.16;5014366;28;20083;-62
2023/12/08 00:33:59;;;;;;;15.85;4.47;;;;;;;-0.72;74.49;99285.06;5024063;28;20118;-66
2023/12/08 00:36:30;;;;;;;10.27;4.82;;;;;;;-0.71;74.17;99279.06;5015196;28;20052;-62
2023/12/08 00:39:00;;;;;;;12.63;4.05;;;;;;;-0.63;74.03;99294.56;5024472;28;20081;-64
2023/12/08 00:41:31;;;;;;;8.05;4.20;;;;;;;-0.44;74.84;99299.94;5014391;28;20506;-62
2023/12/08 00:44:01;;;;;;;12.38;4.53;;;;;;;-0.24;75.24;99300.19;5024163;28;20383;-63
2023/12/08 00:46:32;;;;;;;13.25;5.82;;;;;;;-0.09;75.58;99299.50;5013983;28;20052;-63
2023/12/08 00:49:04;;;;;;;12.18;4.72;;;;;;;-0.09;73.93;99304.63;5023802;28;20045;-62
2023/12/08 00:51:35;;;;;;;8.50;4.50;;;;;;;-0.30;73.00;99304.38;4975384;28;20145;-64
2023/12/08 00:54:05;;;;;;;9.77;3.70;;;;;;;-0.49;71.64;99318.69;4984158;28;20045;-62
2023/12/08 00:56:36;;;;;;;9.07;4.38;;;;;;;-0.59;72.88;99333.09;4973869;28;20132;-64
2023/12/08 00:59:06;;;;;;;14.38;4.68;;;;;;;-0.57;73.44;99331.44;4982290;28;20168;-61
2023/12/08 01:01:37;;;;;;;11.13;3.65;;;;;;;-0.66;71.70;99336.44;4955623;28;20066;-64
2023/12/08 01:04:09;;;;;;;8.65;3.92;;;;;;;-0.75;73.06;99351.69;4983609;28;20077;-65
2023/12/08 01:06:40;;;;;;;7.90;4.45;;;;;;;-0.67;73.16;99350.09;4973675;28;20127;-63
2023/12/08 01:09:12;;;;;;;17.10;4.35;;;;;;;-0.63;73.27;99362.13;4984321;28;20057;-66
2023/12/08 01:11:42;;;;;;;9.35;4.30;;;;;;;-0.61;72.65;99365.56;4973833;28;20060;-64
2023/12/08 01:14:13;;;;;;;10.93;3.88;;;;;;;-0.59;73.38;99363.91;4983967;28;20050;-62
2023/12/08 01:16:44;;;;;;;13.70;4.10;;;;;;;-0.45;73.05;99382.91;4973866;28;20392;-64
2023/12/08 01:19:16;;;;;;;7.95;4.15;;;;;;;-0.57;71.17;99372.47;4984985;28;20703;-64
2023/12/08 01:21:46;;;;;;;10.07;3.40;;;;;;;-0.68;71.96;99386.84;4980747;28;20113;-64
2023/12/08 01:24:17;;;;;;;12.95;4.30;;;;;;;-0.60;72.34;99385.28;4991132;28;20136;-65
2023/12/08 01:26:48;;;;;;;10.15;3.85;;;;;;;-0.56;72.82;99399.00;4980622;28;20396;-65
2023/12/08 01:29:18;;;;;;;10.80;3.88;;;;;;;-0.60;71.98;99398.09;4990365;28;20554;-62
2023/12/08 01:31:49;;;;;;;7.95;3.58;;;;;;;-0.61;71.67;99401.50;4980827;28;20492;-63
2023/12/08 01:34:21;;;;;;;11.70;3.92;;;;;;;-0.75;72.18;99413.25;4990959;28;20132;-66
2023/12/08 01:36:52;;;;;;;6.75;3.20;;;;;;;-1.23;70.38;99344.97;4980389;28;20499;-61
2023/12/08 01:39:22;;;;;;;9.43;3.97;;;;;;;-0.94;71.77;99425.78;4987923;28;20061;-61
2023/12/08 01:41:53;;;;;;;10.43;3.97;;;;;;;-0.89;72.17;99431.00;4992853;28;20072;-64
2023/12/08 01:44:23;;;;;;;8.75;2.95;;;;;;;-0.80;71.05;99430.25;5009438;28;20049;-63
2023/12/08 01:46:54;;;;;;;9.73;4.20;;;;;;;-0.77;71.56;99430.34;4999290;28;20514;-64
2023/12/08 01:49:26;;;;;;;9.73;3.58;;;;;;;-0.69;70.56;99444.13;5010554;28;20049;-64
2023/12/08 01:51:57;;;;;;;9.13;3.75;;;;;;;-0.76;69.51;99432.06;5015040;28;20136;-63
2023/12/08 01:54:28;;;;;;;9.90;3.63;;;;;;;-0.74;69.60;99441.50;5000673;28;20484;-64
2023/12/08 01:56:59;;;;;;;8.45;3.75;;;;;;;-0.81;69.95;99454.19;5009691;28;20045;-65
2023/12/08 01:59:30;;;;;;;10.18;4.07;;;;;;;-0.72;70.64;99449.22;5000051;28;20061;-64
2023/12/08 02:02:01;;;;;;;11.00;4.40;;;;;;;-0.73;69.94;99452.63;5009668;28;20049;-62
2023/12/08 02:04:33;;;;;;;10.50;4.03;;;;;;;-0.75;68.82;99449.16;4999946;28;20085;-62
2023/12/08 02:07:04;;;;;;;10.10;3.45;;;;;;;-0.73;70.30;99470.56;5014992;28;20109;-65
2023/12/08 02:09:35;;;;;;;9.82;3.90;;;;;;;-0.76;69.04;99458.56;5015999;28;20416;-64
2023/12/08 02:12:06;;;;;;;9.27;3.83;;;;;;;-0.81;68.26;99477.28;5029285;28;20049;-66
2023/12/08 02:14:37;;;;;;;9.85;3.40;;;;;;;-0.75;69.24;99469.69;5018777;28;20110;-65
2023/12/08 02:17:14;;;;;;;8.05;3.58;;;;;;;-0.54;70.48;99475.16;5027644;28;20089;-67
2023/12/08 02:19:48;;;;;;;7.93;3.17;;;;;;;-0.56;68.72;99479.41;4998812;28;20081;-63
2023/12/08 02:22:23;;;;;;;7.70;3.58;;;;;;;-0.71;68.78;99481.72;4989942;28;20053;-65
2023/12/08 02:24:55;;;;;;;13.18;4.35;;;;;;;-0.80;70.50;99476.44;4979433;28;20104;-63
2023/12/08 02:27:26;;;;;;;9.07;3.45;;;;;;;-0.82;70.57;99483.22;5003034;28;20050;-65
2023/12/08 02:29:58;;;;;;;10.20;3.88;;;;;;;-0.79;70.29;99498.69;5008774;28;20190;-65
2023/12/08 02:32:37;;;;;;;9.48;4.30;;;;;;;-0.75;70.98;99510.72;4996187;28;20061;-64
2023/12/08 02:35:10;;;;;;;14.07;5.03;;;;;;;-0.66;70.47;99505.75;5006176;28;20060;-65
2023/12/08 02:37:45;;;;;;;9.63;3.95;;;;;;;-0.62;70.37;99512.69;4995951;28;20053;-63
2023/12/08 02:40:18;;;;;;;8.48;3.78;;;;;;;-0.62;69.49;99507.53;5006288;28;20884;-63
2023/12/08 02:42:48;;;;;;;14.30;4.20;;;;;;;-0.58;69.27;99519.56;4996402;28;20060;-65
2023/12/08 02:45:19;;;;;;;11.02;4.05;;;;;;;-0.65;70.45;99517.72;5006575;28;20056;-64
2023/12/08 02:47:49;;;;;;;7.43;3.50;;;;;;;-0.67;69.50;99514.31;4996151;28;20115;-65
2023/12/08 02:50:20;;;;;;;13.38;4.82;;;;;;;-0.56;70.19;99527.31;5014099;28;20064;-66
2023/12/08 02:52:50;;;;;;;11.90;4.15;;;;;;;-0.49;69.53;99541.97;4995529;28;20160;-64
2023/12/08 02:55:25;;;;;;;12.23;3.53;;;;;;;-0.54;69.69;99541.88;5005631;28;20053;-64
2023/12/08 02:57:56;;;;;;;14.32;3.78;;;;;;;-0.55;69.67;99535.03;5005747;28;20064;-63
2023/12/08 03:00:26;;;;;;;10.93;3.83;;;;;;;-0.66;68.35;99546.81;4998210;28;20770;-62
2023/12/08 03:02:56;;;;;;;10.25;4.22;;;;;;;-0.75;69.78;99549.19;5005574;28;20119;-64
2023/12/08 03:05:27;;;;;;;8.38;3.45;;;;;;;-0.78;69.69;99554.28;4994817;28;20057;-63
2023/12/08 03:08:16;;;;;;;11.38;3.92;;;;;;;-0.80;70.40;99543.13;5005479;28;20061;-64
2023/12/08 03:10:47;;;;;;;8.63;3.65;;;;;;;-0.70;70.34;99566.44;4995498;28;20687;-62
2023/12/08 03:13:18;;;;;;;8.93;3.75;;;;;;;-0.77;68.62;99568.84;5005584;28;20079;-63
2023/12/08 03:15:48;;;;;;;7.95;3.28;;;;;;;-0.83;69.00;99555.91;4995794;28;20046;-66
2023/12/08 03:18:19;;;;;;;9.02;3.67;;;;;;;-0.84;70.10;99578.13;5006023;28;20103;-63
2023/12/08 03:20:49;;;;;;;8.75;3.13;;;;;;;-0.85;69.48;99566.13;4995790;28;20119;-64
2023/12/08 03:23:20;;;;;;;9.45;3.78;;;;;;;-0.88;69.50;99579.75;5005321;28;20064;-64
2023/12/08 03:25:52;;;;;;;9.73;3.38;;;;;;;-0.90;71.02;99588.25;4994651;28;20106;-66
2023/12/08 03:28:23;;;;;;;9.70;3.65;;;;;;;-0.87;70.17;99589.19;5005140;28;20064;-62
2023/12/08 03:30:53;;;;;;;7.72;3.67;;;;;;;-0.91;69.66;99582.28;4994552;28;20049;-63
2023/12/08 03:33:24;;;;;;;9.50;4.07;;;;;;;-0.87;70.34;99599.47;5005540;28;20053;-63
2023/12/08 03:35:54;;;;;;;12.63;3.67;;;;;;;-1.00;69.41;99582.13;4994642;28;20054;-65
2023/12/08 03:38:25;;;;;;;7.63;3.75;;;;;;;-1.00;70.80;99607.75;5003732;28;20049;-64
2023/12/08 03:40:57;;;;;;;7.57;3.55;;;;;;;-0.92;70.06;99611.31;5004546;28;20045;-61
2023/12/08 03:43:27;;;;;;;10.88;3.90;;;;;;;-0.89;70.85;99601.13;4994221;28;20057;-62
2023/12/08 03:45:59;;;;;;;7.18;3.72;;;;;;;-0.82;70.02;99621.75;5004823;28;20055;-64
2023/12/08 03:48:29;;;;;;;12.63;4.65;;;;;;;-0.79;69.56;99616.69;4994732;28;20134;-63
2023/12/08 03:51:00;;;;;;;7.45;3.72;;;;;;;-0.74;68.95;99594.56;5004265;28;20049;-62
2023/12/08 03:53:31;;;;;;;7.13;3.40;;;;;;;-0.70;69.59;99632.25;4994603;28;20075;-63
2023/12/08 03:56:03;;;;;;;12.10;3.80;;;;;;;-0.78;68.51;99636.38;5002118;28;20045;-63
2023/12/08 03:58:33;;;;;;;5.88;3.20;;;;;;;-0.90;69.71;99644.69;4994361;28;20061;-62
2023/12/08 04:01:04;;;;;;;9.80;3.63;;;;;;;-0.94;69.88;99642.91;5004570;28;20050;-65
2023/12/08 04:03:39;;;;;;;7.13;3.20;;;;;;;-1.01;70.56;99652.16;4994725;28;20484;-64
2023/12/08 04:06:10;;;;;;;8.95;3.33;;;;;;;-1.01;70.70;99669.25;5004257;28;20049;-62
2023/12/08 04:08:41;;;;;;;13.05;3.72;;;;;;;-0.99;70.99;99677.84;4994149;28;20049;-63
2023/12/08 04:11:13;;;;;;;12.30;4.20;;;;;;;-0.80;71.56;99681.63;5004316;28;20049;-63
2023/12/08 04:13:43;;;;;;;6.35;3.00;;;;;;;-0.80;69.55;99697.03;5011196;28;20053;-62
2023/12/08 04:16:16;;;;;;;10.00;3.83;;;;;;;-0.79;70.46;99709.03;5003970;28;20104;-63
2023/12/08 04:18:46;;;;;;;5.97;2.88;;;;;;;-0.80;68.71;99712.44;4991589;28;20050;-63
2023/12/08 04:21:21;;;;;;;12.15;4.00;;;;;;;-0.80;70.36;99732.94;5004646;28;20107;-64
2023/12/08 04:23:51;;;;;;;8.18;3.95;;;;;;;-0.76;70.04;99733.03;4993719;28;20049;-63
2023/12/08 04:26:24;;;;;;;10.23;3.75;;;;;;;-0.63;70.35;99731.59;5000996;28;20061;-61
2023/12/08 04:28:55;;;;;;;8.32;3.25;;;;;;;-0.61;69.70;99740.19;4993673;28;20105;-64
2023/12/08 04:31:26;;;;;;;11.73;3.90;;;;;;;-0.61;69.33;99732.50;4995579;28;20144;-62
2023/12/08 04:33:56;;;;;;;8.40;3.50;;;;;;;-0.83;69.31;99754.28;5003901;28;20064;-63
2023/12/08 04:36:27;;;;;;;9.40;3.92;;;;;;;-0.84;69.84;99759.38;4994768;28;20057;-62
2023/12/08 04:38:57;;;;;;;13.00;3.95;;;;;;;-0.93;69.48;99753.19;5004387;28;20041;-63
2023/12/08 04:41:30;;;;;;;8.77;3.35;;;;;;;-0.92;69.77;99760.09;4994267;28;20431;-62
2023/12/08 04:44:00;;;;;;;11.25;3.75;;;;;;;-1.04;69.66;99764.94;4994182;28;20060;-63
2023/12/08 04:46:31;;;;;;;7.68;3.10;;;;;;;-1.03;69.99;99766.66;4993851;28;20145;-62
2023/12/08 04:49:02;;;;;;;9.20;3.83;;;;;;;-1.10;69.93;99795.56;5004369;28;20128;-61
2023/12/08 04:51:33;;;;;;;11.63;3.67;;;;;;;-1.10;70.07;99795.56;4993948;28;20142;-64
2023/12/08 04:54:04;;;;;;;10.65;3.83;;;;;;;-1.10;70.26;99808.38;5002570;28;20886;-62
2023/12/08 04:56:36;;;;;;;10.15;4.13;;;;;;;-1.05;69.79;99814.47;4993005;28;20069;-64
2023/12/08 04:59:06;;;;;;;9.10;3.45;;;;;;;-1.07;69.51;99811.03;5003481;28;20053;-63
2023/12/08 05:01:37;;;;;;;13.73;3.88;;;;;;;-1.13;69.66;99821.13;4993370;28;20084;-64
2023/12/08 05:04:07;;;;;;;13.50;4.82;;;;;;;-1.06;70.54;99838.41;5003425;28;20045;-62
2023/12/08 05:06:38;;;;;;;12.63;3.95;;;;;;;-1.00;70.33;99838.56;4993723;28;20045;-64
2023/12/08 05:09:10;;;;;;;13.05;3.95;;;;;;;-0.96;70.18;99848.03;5003560;28;20140;-64
2023/12/08 05:11:42;;;;;;;12.23;4.13;;;;;;;-0.92;69.71;99860.09;4993259;28;20057;-63
2023/12/08 05:14:13;;;;;;;9.75;3.40;;;;;;;-0.86;69.13;99856.81;5003243;28;20088;-63
2023/12/08 05:16:43;;;;;;;11.48;3.92;;;;;;;-0.91;69.15;99869.53;4993139;28;20115;-63
2023/12/08 05:19:14;;;;;;;10.50;4.25;;;;;;;-1.07;69.24;99867.44;5002921;28;20053;-62
2023/12/08 05:21:45;;;;;;;9.77;3.88;;;;;;;-1.17;69.92;99868.91;4993610;28;20051;-63
2023/12/08 05:24:15;;;;;;;6.88;3.35;;;;;;;-1.25;69.30;99866.97;5004171;28;20053;-62
2023/12/08 05:26:47;;;;;;;8.20;3.85;;;;;;;-1.52;69.55;99848.41;4993122;28;20046;-64
2023/12/08 05:29:18;;;;;;;10.90;3.95;;;;;;;-1.36;69.59;99887.22;5003969;28;20142;-62
2023/12/08 05:31:48;;;;;;;9.27;3.70;;;;;;;-1.31;70.69;99904.44;4993897;28;20049;-62
2023/12/08 05:34:19;;;;;;;9.75;3.83;;;;;;;-1.32;69.88;99902.72;5003741;28;20053;-61
2023/12/08 05:36:49;;;;;;;11.95;4.35;;;;;;;-1.32;70.56;99907.84;4993317;28;20773;-61
2023/12/08 05:39:20;;;;;;;8.50;4.32;;;;;;;-1.31;71.06;99914.69;5003950;28;20128;-63
2023/12/08 05:41:52;;;;;;;7.65;3.67;;;;;;;-1.34;70.14;99913.75;4985434;28;20053;-61
2023/12/08 05:44:22;;;;;;;9.27;3.40;;;;;;;-1.42;70.28;99926.38;5003340;28;20053;-61
2023/12/08 05:46:53;;;;;;;7.78;3.47;;;;;;;-1.47;70.69;99927.06;4992180;28;20061;-61
2023/12/08 05:49:26;;;;;;;9.98;3.67;;;;;;;-1.49;71.72;99929.59;4998992;28;20083;-61
2023/12/08 05:51:57;;;;;;;10.85;3.83;;;;;;;-1.54;71.46;99938.88;4998277;28;20138;-63
2023/12/08 05:54:28;;;;;;;9.07;3.92;;;;;;;-1.55;71.57;99940.56;4991585;28;20057;-63
2023/12/08 05:57:00;;;;;;;8.23;3.70;;;;;;;-1.56;71.87;99943.06;5006275;28;20400;-61
2023/12/08 05:59:30;;;;;;;9.50;4.13;;;;;;;-1.62;72.18;99943.78;4983799;28;20181;-62
2023/12/08 06:02:01;;;;;;;9.38;4.40;;;;;;;-1.59;72.76;99960.94;5000393;28;20049;-62
2023/12/08 06:04:31;;;;;;;10.55;4.05;;;;;;;-2.08;72.24;99865.66;4991559;28;20046;-64
2023/12/08 06:07:02;;;;;;;10.05;4.28;;;;;;;-1.59;72.06;99963.50;5005998;28;20061;-61
2023/12/08 06:09:33;;;;;;;10.30;4.10;;;;;;;-1.59;71.77;99976.31;4996664;28;20136;-63
2023/12/08 06:12:06;;;;;;;10.05;4.28;;;;;;;-1.61;72.67;99970.25;5001657;28;20582;-63
2023/12/08 06:14:37;;;;;;;13.52;4.13;;;;;;;-1.62;73.54;99983.88;4997030;28;20061;-62
2023/12/08 06:17:07;;;;;;;11.13;4.20;;;;;;;-1.62;72.97;99989.00;5006533;28;20391;-63
2023/12/08 06:19:38;;;;;;;15.98;5.13;;;;;;;-1.62;73.07;100010.41;4996030;28;20069;-62
2023/12/08 06:22:08;;;;;;;8.90;3.83;;;;;;;-1.65;73.46;100011.97;5021786;28;20706;-63
2023/12/08 06:24:39;;;;;;;12.18;4.15;;;;;;;-1.67;73.80;100011.97;5015446;28;20060;-62
2023/12/08 06:27:11;;;;;;;11.77;4.75;;;;;;;-1.94;74.04;99971.03;5013030;28;20053;-61
2023/12/08 06:29:42;;;;;;;15.60;5.00;;;;;;;-1.54;73.91;100037.09;4991138;28;20156;-64
2023/12/08 06:32:12;;;;;;;10.48;4.25;;;;;;;-1.53;73.49;100040.53;5025787;28;20057;-62
2023/12/08 06:34:43;;;;;;;11.07;3.63;;;;;;;-1.54;73.10;100044.78;5015059;28;20056;-64
2023/12/08 06:37:14;;;;;;;9.32;3.72;;;;;;;-1.57;71.94;100056.66;5020784;28;20144;-64
2023/12/08 06:39:44;;;;;;;11.70;3.60;;;;;;;-1.55;72.28;100052.41;5015960;28;20068;-62
2023/12/08 06:42:16;;;;;;;11.80;4.45;;;;;;;-1.46;73.20;100065.50;5026760;28;20056;-62
2023/12/08 06:44:47;;;;;;;12.57;4.53;;;;;;;-1.40;73.15;100075.06;5016060;28;20719;-63
2023/12/08 06:47:17;;;;;;;16.98;3.70;;;;;;;-1.38;72.96;100081.97;5026123;28;20130;-62
2023/12/08 06:49:48;;;;;;;8.10;3.67;;;;;;;-1.41;72.19;100087.00;5030514;28;20064;-61
2023/12/08 06:52:18;;;;;;;10.68;3.95;;;;;;;-1.45;72.48;100090.28;5045327;28;20044;-64
2023/12/08 06:54:50;;;;;;;10.85;4.13;;;;;;;-1.34;73.25;100101.75;5035054;28;20123;-63
2023/12/08 06:57:23;;;;;;;9.18;3.50;;;;;;;-1.34;71.53;100109.44;5046066;28;20079;-62
2023/12/08 06:59:54;;;;;;;12.50;4.05;;;;;;;-1.43;70.72;100114.28;5031305;28;20067;-61
2023/12/08 07:02:27;;;;;;;9.88;3.80;;;;;;;-1.41;71.37;100117.75;5014967;28;20163;-61
2023/12/08 07:04:57;;;;;;;14.32;3.97;;;;;;;-1.39;71.05;100130.63;5025170;28;20052;-62
2023/12/08 07:07:28;;;;;;;12.35;3.90;;;;;;;-1.40;70.94;100128.88;5014433;28;20045;-63
2023/12/08 07:09:59;;;;;;;12.13;3.80;;;;;;;-1.43;70.74;100131.34;5024943;28;20053;-62
2023/12/08 07:12:31;;;;;;;11.27;3.65;;;;;;;-1.49;70.48;100136.31;5014918;28;20141;-63
2023/12/08 07:15:02;;;;;;;10.80;3.92;;;;;;;-1.52;70.58;100148.19;5024713;28;20464;-61
2023/12/08 07:17:33;;;;;;;11.98;3.90;;;;;;;-1.53;70.15;100140.44;5014032;28;20064;-61
2023/12/08 07:20:06;;;;;;;6.07;3.40;;;;;;;-1.52;70.10;100144.78;5024620;28;20494;-62
2023/12/08 07:22:36;;;;;;;13.65;4.10;;;;;;;-1.49;70.57;100157.66;5014635;28;20401;-61
2023/12/08 07:25:09;;;;;;;9.48;3.75;;;;;;;-1.50;70.89;100158.47;5024445;28;20052;-61
2023/12/08 07:27:41;;;;;;;15.10;4.40;;;;;;;-1.51;71.26;100146.50;5014816;28;20559;-61
2023/12/08 07:30:12;;;;;;;8.65;3.25;;;;;;;-1.48;70.57;100141.47;5025045;28;20057;-61
2023/12/08 07:32:43;;;;;;;10.15;4.47;;;;;;;-1.55;69.68;100144.66;5014419;28;20108;-61
2023/12/08 07:35:13;;;;;;;16.50;4.05;;;;;;;-1.54;70.29;100151.53;5040213;28;20135;-60
2023/12/08 07:37:44;;;;;;;10.07;4.10;;;;;;;-1.49;70.84;100155.09;5033557;28;20048;-61
2023/12/08 07:40:14;;;;;;;11.05;3.90;;;;;;;-1.57;70.97;100148.91;5044169;28;20040;-61
2023/12/08 07:42:49;;;;;;;8.90;3.10;;;;;;;-1.50;71.26;100155.91;5033558;28;20085;-61
2023/12/08 07:45:20;;;;;;;14.43;4.40;;;;;;;-1.52;70.69;100155.03;5045008;28;20044;-61
2023/12/08 07:47:50;;;;;;;5.13;3.40;;;;;;;-1.53;70.58;100163.50;5033187;28;20071;-61
2023/12/08 07:50:21;;;;;;;7.20;3.65;;;;;;;-1.57;70.74;100151.44;5044006;28;20051;-61
2023/12/08 07:52:53;;;;;;;8.10;3.42;;;;;;;-1.62;71.13;100145.28;5033699;28;20048;-60
2023/12/08 07:55:24;;;;;;;10.52;3.38;;;;;;;-1.63;70.49;100141.88;5039667;28;20504;-61
2023/12/08 07:57:56;;;;;;;9.13;3.42;;;;;;;-1.70;70.29;100144.19;5013812;28;20509;-61
2023/12/08 08:00:27;;;;;;;9.77;4.03;;;;;;;-1.76;70.12;100161.09;5014770;28;20690;-61
2023/12/08 08:02:57;;;;;;;7.05;3.60;;;;;;;-1.79;71.13;100173.81;5023662;28;20056;-60
2023/12/08 08:05:28;;;;;;;11.80;3.80;;;;;;;-1.89;71.43;100189.72;5013356;28;20083;-60
2023/12/08 08:07:58;;;;;;;13.68;3.55;;;;;;;-1.91;71.30;100204.16;5023590;28;20052;-62
2023/12/08 08:10:28;;;;;;;9.05;3.83;;;;;;;-1.86;71.31;100210.31;5013313;28;20053;-63
2023/12/08 08:13:01;;;;;;;13.20;4.32;;;;;;;-1.85;72.81;100222.28;5023867;28;20049;-62
2023/12/08 08:15:31;;;;;;;7.75;3.60;;;;;;;-1.84;73.06;100224.03;5014129;28;20060;-62
2023/12/08 08:18:02;;;;;;;12.27;4.97;;;;;;;-1.84;72.78;100230.84;5023092;28;20064;-60
2023/12/08 08:20:33;;;;;;;14.63;4.80;;;;;;;-1.87;73.50;100228.16;5013254;28;20080;-62
2023/12/08 08:23:06;;;;;;;30.77;7.95;;;;;;;-2.05;73.71;100211.38;5023480;28;20045;-61
2023/12/08 08:25:37;;;;;;;28.27;8.85;;;;;;;-2.28;73.67;100200.38;5013315;28;20108;-61
2023/12/08 08:28:09;;;;;;;12.18;4.75;;;;;;;-2.18;74.83;100228.00;5022942;28;20480;-61
2023/12/08 08:30:43;;;;;;;16.65;5.55;;;;;;;-2.22;74.99;100220.16;5014301;28;20122;-62
2023/12/08 08:33:13;;;;;;;22.25;6.45;;;;;;;-2.23;74.80;100239.78;5024216;28;20041;-60
2023/12/08 08:35:44;;;;;;;16.95;5.32;;;;;;;-2.45;75.00;100233.03;5013781;28;20052;-63
2023/12/08 08:38:15;;;;;;;16.02;4.95;;;;;;;-2.45;75.18;100247.53;5023814;28;20045;-62
2023/12/08 08:40:45;;;;;;;16.38;5.75;;;;;;;-2.48;75.63;100242.31;5016020;28;20062;-62
2023/12/08 08:43:17;;;;;;;17.40;5.72;;;;;;;-2.54;75.83;100227.63;5027771;28;20490;-63
2023/12/08 08:45:48;;;;;;;15.75;4.47;;;;;;;-2.65;76.20;100229.75;5033166;28;20040;-63
2023/12/08 08:48:18;;;;;;;62.00;25.77;;;;;;;-2.96;75.73;100216.69;5043609;28;20501;-63
2023/12/08 08:50:50;;;;;;;18.88;8.80;;;;;;;-3.66;76.62;100169.75;5028652;28;20395;-64
2023/12/08 08:53:20;;;;;;;21.58;8.80;;;;;;;-3.56;76.96;100212.72;5023872;28;20139;-64
2023/12/08 08:55:51;;;;;;;20.70;9.02;;;;;;;-3.65;77.41;100211.47;5014828;28;20050;-60
2023/12/08 08:58:23;;;;;;;19.33;9.27;;;;;;;-3.64;77.75;100209.00;5028798;28;20526;-62
2023/12/08 09:00:54;;;;;;;12.80;6.88;;;;;;;-3.61;78.02;100204.00;5007621;28;20136;-62
2023/12/08 09:03:24;;;;;;;15.23;6.78;;;;;;;-3.59;78.30;100209.19;5019272;28;20060;-63
2023/12/08 09:05:55;;;;;;;18.40;7.25;;;;;;;-3.51;78.64;100195.88;5018861;28;20048;-62
2023/12/08 09:08:25;;;;;;;20.90;7.38;;;;;;;-3.38;79.03;100211.69;5016240;28;20106;-64
2023/12/08 09:10:57;;;;;;;13.73;6.68;;;;;;;-3.43;78.86;100224.28;5016510;28;20053;-62
2023/12/08 09:13:32;;;;;;;25.02;11.82;;;;;;;-3.55;79.01;100222.09;5008651;28;20080;-63
2023/12/08 09:16:02;;;;;;;23.45;10.30;;;;;;;-3.56;79.60;100248.47;5018568;28;20132;-62
2023/12/08 09:18:33;;;;;;;25.50;12.05;;;;;;;-3.50;79.59;100258.94;5006214;28;20049;-61
2023/12/08 09:21:05;;;;;;;25.00;11.68;;;;;;;-3.48;80.06;100257.31;5015025;28;20045;-61
2023/12/08 09:23:35;;;;;;;21.05;9.05;;;;;;;-3.58;79.70;100259.44;5007799;28;20045;-62
2023/12/08 09:26:06;;;;;;;24.70;9.77;;;;;;;-3.67;79.76;100265.03;5016669;28;20052;-65
2023/12/08 09:28:38;;;;;;;19.63;8.65;;;;;;;-3.63;80.02;100266.06;5003959;28;20476;-63
2023/12/08 09:31:09;;;;;;;20.67;9.38;;;;;;;-3.67;80.12;100282.91;5020060;28;20487;-65
2023/12/08 09:33:41;;;;;;;21.00;10.10;;;;;;;-3.74;80.20;100278.38;5008741;28;20048;-62
2023/12/08 09:36:12;;;;;;;22.33;9.38;;;;;;;-3.75;79.90;100282.59;5018150;28;20236;-62
2023/12/08 09:38:43;;;;;;;23.98;14.15;;;;;;;-3.85;79.82;100285.59;5009197;28;20465;-61
2023/12/08 09:41:15;;;;;;;31.83;22.67;;;;;;;-4.11;80.04;100287.06;5019897;28;20056;-63
2023/12/08 09:43:56;;;;;;;37.97;23.33;;;;;;;-4.23;80.67;100281.41;5013326;28;20103;-62
2023/12/08 09:46:27;;;;;;;12.65;8.70;;;;;;;-4.40;81.00;100284.09;5015584;28;20061;-63
2023/12/08 09:49:01;;;;;;;10.70;7.32;;;;;;;-4.47;81.59;100292.28;5022707;28;20068;-64
2023/12/08 09:51:32;;;;;;;10.60;5.78;;;;;;;-4.51;82.03;100290.41;5010626;28;20163;-61
2023/12/08 09:54:03;;;;;;;13.23;5.10;;;;;;;-4.49;82.61;100304.09;5027009;28;20052;-63
2023/12/08 09:56:34;;;;;;;11.60;5.60;;;;;;;-4.36;82.93;100301.28;5014231;28;20141;-64
2023/12/08 09:59:07;;;;;;;13.45;3.83;;;;;;;-4.22;83.44;100294.25;5022634;28;20056;-63
2023/12/08 10:01:38;;;;;;;9.50;4.63;;;;;;;-4.16;82.74;100288.53;5014318;28;20135;-64
2023/12/08 10:04:08;;;;;;;8.32;3.90;;;;;;;-4.12;82.37;100295.50;5023924;28;20171;-63
2023/12/08 10:06:41;;;;;;;9.20;4.05;;;;;;;-4.07;82.28;100299.13;5014904;28;20064;-64
2023/12/08 10:09:13;;;;;;;10.85;4.35;;;;;;;-4.02;82.27;100318.06;5024965;28;20600;-60
2023/12/08 10:11:44;;;;;;;12.48;5.22;;;;;;;-3.99;82.20;100318.19;5012321;28;20406;-62
2023/12/08 10:14:19;;;;;;;16.80;6.95;;;;;;;-3.98;81.84;100325.03;5024586;28;20144;-62
2023/12/08 10:16:50;;;;;;;18.10;9.27;;;;;;;-4.05;81.65;100346.00;5003655;28;20057;-63
2023/12/08 10:19:22;;;;;;;23.77;10.27;;;;;;;-4.10;81.97;100350.03;5024460;28;20049;-63
2023/12/08 10:22:03;;;;;;;15.68;7.82;;;;;;;-4.25;81.65;100347.66;5013549;28;20111;-61
2023/12/08 10:24:35;;;;;;;49.95;18.50;;;;;;;-4.30;81.51;100366.13;5013503;28;20084;-63
2023/12/08 10:27:06;;;;;;;86.05;29.85;;;;;;;-4.43;81.71;100354.50;5022049;28;20418;-64
2023/12/08 10:29:38;;;;;;;33.53;13.02;;;;;;;-4.51;81.78;100366.06;5013721;28;20092;-65
2023/12/08 10:32:09;;;;;;;24.13;10.50;;;;;;;-4.67;82.06;100364.47;5024587;28;20045;-64
2023/12/08 10:34:41;;;;;;;19.30;8.45;;;;;;;-4.80;82.23;100358.78;5017489;28;20059;-61
2023/12/08 10:37:11;;;;;;;15.27;6.70;;;;;;;-4.99;82.90;100366.41;5024473;28;20562;-62
2023/12/08 10:39:42;;;;;;;14.65;6.28;;;;;;;-5.45;83.57;100310.69;5011834;28;20048;-62
2023/12/08 10:42:12;;;;;;;14.00;5.82;;;;;;;-5.25;83.90;100373.63;5023808;28;20087;-66
2023/12/08 10:44:47;;;;;;;28.80;11.93;;;;;;;-5.45;84.82;100353.97;5011730;28;20077;-63
2023/12/08 10:47:20;;;;;;;40.45;17.30;;;;;;;-5.34;85.40;100388.50;5023724;28;20372;-64
2023/12/08 10:49:54;;;;;;;28.73;13.43;;;;;;;-5.36;85.59;100400.28;5013643;28;20076;-60
2023/12/08 10:52:27;;;;;;;11.60;5.70;;;;;;;-5.33;86.11;100392.78;5023612;28;20506;-62
2023/12/08 10:54:57;;;;;;;9.32;4.80;;;;;;;-5.42;85.94;100392.31;5014916;28;20057;-62
2023/12/08 10:57:28;;;;;;;11.23;4.95;;;;;;;-5.47;86.09;100396.31;5015459;28;20057;-63
2023/12/08 11:00:11;;;;;;;11.05;4.30;;;;;;;-5.51;86.62;100389.31;5024300;28;20156;-63
2023/12/08 11:02:45;;;;;;;10.60;4.53;;;;;;;-5.49;86.68;100392.78;5012489;28;20053;-60
2023/12/08 11:05:28;;;;;;;12.18;6.10;;;;;;;-5.57;86.63;100383.91;5024991;28;20595;-61
2023/12/08 11:08:01;;;;;;;142.10;39.50;;;;;;;-5.58;86.73;100394.91;5003828;28;20049;-65
2023/12/08 11:10:36;;;;;;;172.95;51.53;;;;;;;-5.58;86.53;100397.44;4994482;28;20053;-62
2023/12/08 11:13:12;;;;;;;104.32;35.42;;;;;;;-5.58;86.93;100397.44;5024650;28;20103;-63
2023/12/08 11:15:54;;;;;;;131.23;44.88;;;;;;;-5.59;86.84;100395.69;5014743;28;20080;-62
2023/12/08 11:18:26;;;;;;;71.32;30.55;;;;;;;-5.60;86.79;100401.59;5023749;28;20111;-61
2023/12/08 11:20:58;;;;;;;39.00;19.27;;;;;;;-5.55;87.13;100395.06;5008420;28;20057;-60
2023/12/08 11:23:28;;;;;;;23.98;10.95;;;;;;;-5.50;86.83;100396.16;5017187;28;20112;-64
2023/12/08 11:26:06;;;;;;;11.93;6.60;;;;;;;-5.47;86.75;100406.47;5027651;28;20099;-64
2023/12/08 11:29:19;;;;;;;11.10;4.88;;;;;;;-5.49;86.71;100403.88;5016155;28;20056;-65
2023/12/08 11:32:01;;;;;;;12.73;5.40;;;;;;;-5.41;86.92;100411.91;4998135;28;20061;-60
2023/12/08 11:34:38;;;;;;;10.32;4.93;;;;;;;-5.38;86.77;100411.19;5002552;28;20132;-60
2023/12/08 11:37:09;;;;;;;9.82;4.90;;;;;;;-5.40;86.26;100418.72;5012459;28;20060;-60
2023/12/08 11:39:44;;;;;;;12.23;4.90;;;;;;;-5.48;86.04;100420.03;5001771;28;20053;-60
2023/12/08 11:42:16;;;;;;;9.65;4.65;;;;;;;-5.53;86.21;100416.38;5015090;28;20052;-61
2023/12/08 11:44:48;;;;;;;10.20;4.68;;;;;;;-5.56;86.26;100417.09;4997338;28;20871;-62